createdAt,value
2022-12-26T00:01:06.046Z,10.91
2022-12-26T00:03:33.500Z,10.88
2022-12-26T00:06:00.946Z,10.80
2022-12-26T00:08:28.424Z,10.90
2022-12-26T00:10:55.873Z,10.89
2022-12-26T00:13:40.151Z,10.97
2022-12-26T00:16:14.185Z,11.19
2022-12-26T00:18:42.108Z,11.25
2022-12-26T00:21:10.959Z,11.21
2022-12-26T00:23:39.395Z,11.12
2022-12-26T00:26:18.138Z,11.25
2022-12-26T00:28:45.867Z,11.26
2022-12-26T00:31:18.732Z,11.31
2022-12-26T00:33:46.233Z,11.24
2022-12-26T00:36:16.222Z,11.23
2022-12-26T00:38:44.396Z,11.32
2022-12-26T00:41:12.586Z,11.34
2022-12-26T00:43:40.479Z,11.39
2022-12-26T00:46:08.730Z,11.50
2022-12-26T00:48:36.248Z,11.46
2022-12-26T00:51:04.141Z,11.56
2022-12-26T00:53:31.808Z,11.49
2022-12-26T00:55:59.562Z,11.54
2022-12-26T00:58:27.002Z,11.47
2022-12-26T01:00:55.257Z,11.56
2022-12-26T01:03:22.945Z,11.43
2022-12-26T01:05:51.657Z,11.50
2022-12-26T01:08:24.545Z,11.56
2022-12-26T01:10:53.083Z,11.43
2022-12-26T01:13:20.538Z,11.31
2022-12-26T01:15:49.947Z,11.25
2022-12-26T01:18:17.348Z,11.13
2022-12-26T01:20:44.713Z,11.18
2022-12-26T01:23:12.034Z,11.30
2022-12-26T01:26:16.443Z,11.18
2022-12-26T01:28:27.735Z,11.05
2022-12-26T01:30:55.118Z,10.90
2022-12-26T01:33:22.422Z,10.77
2022-12-26T01:35:54.000Z,10.66
2022-12-26T01:38:21.914Z,10.64
2022-12-26T01:41:10.137Z,10.65
2022-12-26T01:43:56.995Z,10.40
2022-12-26T01:46:36.057Z,10.56
2022-12-26T01:49:20.019Z,10.46
2022-12-26T01:51:57.930Z,10.37
2022-12-26T01:54:37.246Z,10.35
2022-12-26T01:57:11.006Z,10.28
2022-12-26T01:59:40.643Z,10.19
2022-12-26T02:02:08.540Z,10.28
2022-12-26T02:04:59.850Z,10.19
2022-12-26T02:07:27.627Z,9.83
2022-12-26T02:09:55.565Z,9.25
2022-12-26T02:12:38.516Z,9.36
2022-12-26T02:15:13.071Z,9.51
2022-12-26T02:17:41.277Z,9.72
2022-12-26T02:20:26.743Z,9.72
2022-12-26T02:23:21.118Z,9.70
2022-12-26T02:26:16.893Z,9.67
2022-12-26T02:29:02.377Z,9.48
2022-12-26T02:31:33.381Z,9.30
2022-12-26T02:34:14.675Z,9.40
2022-12-26T02:37:11.993Z,9.31
2022-12-26T02:39:58.575Z,9.39
2022-12-26T02:42:58.127Z,9.48
2022-12-26T02:46:03.269Z,9.56
2022-12-26T02:48:41.094Z,9.65
2022-12-26T02:51:42.775Z,9.63
2022-12-26T02:54:54.752Z,9.64
2022-12-26T02:58:09.628Z,9.63
2022-12-26T03:00:58.318Z,9.85
2022-12-26T03:03:48.706Z,9.91
2022-12-26T03:06:40.736Z,9.84
2022-12-26T03:09:39.371Z,9.72
2022-12-26T03:12:36.337Z,9.81
2022-12-26T03:15:06.213Z,10.01
2022-12-26T03:17:38.643Z,10.08
2022-12-26T03:20:13.664Z,10.07
2022-12-26T03:23:00.388Z,10.12
2022-12-26T03:25:49.254Z,10.40
2022-12-26T03:28:17.063Z,10.35
2022-12-26T03:30:50.285Z,10.39
2022-12-26T03:33:44.763Z,10.67
2022-12-26T03:36:35.456Z,10.75
2022-12-26T03:39:58.578Z,10.90
2022-12-26T03:43:03.224Z,11.16
2022-12-26T03:46:04.341Z,11.31
2022-12-26T03:49:00.064Z,11.49
2022-12-26T03:52:00.608Z,11.44
2022-12-26T03:55:11.161Z,11.28
2022-12-26T03:58:05.617Z,11.13
2022-12-26T04:00:53.608Z,11.26
2022-12-26T04:03:41.613Z,11.26
2022-12-26T04:06:35.732Z,11.33
2022-12-26T04:09:40.133Z,11.46
2022-12-26T04:12:28.331Z,11.69
2022-12-26T04:15:22.516Z,11.73
2022-12-26T04:18:26.439Z,11.64
2022-12-26T04:21:05.817Z,11.77
2022-12-26T04:24:00.985Z,11.67
2022-12-26T04:26:59.218Z,11.61
2022-12-26T04:29:45.135Z,11.60
2022-12-26T04:32:54.368Z,11.56
2022-12-26T04:35:46.911Z,11.69
2022-12-26T04:38:35.366Z,11.70
2022-12-26T04:41:21.669Z,11.68
2022-12-26T04:44:08.510Z,11.70
2022-12-26T04:46:44.240Z,11.72
2022-12-26T04:49:32.937Z,11.76
2022-12-26T04:52:01.802Z,11.71
2022-12-26T04:54:29.277Z,11.75
2022-12-26T04:56:57.015Z,11.72
2022-12-26T04:59:24.976Z,11.78
2022-12-26T05:02:11.212Z,11.73
2022-12-26T05:04:57.312Z,11.70
2022-12-26T05:07:46.195Z,11.77
2022-12-26T05:10:23.004Z,11.86
2022-12-26T05:12:50.612Z,11.85
2022-12-26T05:15:18.302Z,11.90
2022-12-26T05:18:04.118Z,11.86
2022-12-26T05:20:50.560Z,11.91
2022-12-26T05:23:45.620Z,11.94
2022-12-26T05:26:37.925Z,12.01
2022-12-26T05:29:05.660Z,11.95
2022-12-26T05:31:36.629Z,11.96
2022-12-26T05:34:05.838Z,11.96
2022-12-26T05:36:42.552Z,12.09
2022-12-26T05:39:10.014Z,12.02
2022-12-26T05:41:38.721Z,12.07
2022-12-26T05:44:06.647Z,12.01
2022-12-26T05:46:34.871Z,12.08
2022-12-26T05:49:02.459Z,12.09
2022-12-26T05:51:29.829Z,12.03
2022-12-26T05:53:57.122Z,12.05
2022-12-26T05:56:24.912Z,12.18
2022-12-26T05:59:00.022Z,12.06
2022-12-26T06:01:28.582Z,12.04
2022-12-26T06:03:57.783Z,12.15
2022-12-26T06:06:26.009Z,12.17
2022-12-26T06:08:55.186Z,12.20
2022-12-26T06:11:23.458Z,12.11
2022-12-26T06:13:50.840Z,12.10
2022-12-26T06:16:19.259Z,12.02
2022-12-26T06:18:48.232Z,12.04
2022-12-26T06:21:18.264Z,12.08
2022-12-26T06:23:45.647Z,12.01
2022-12-26T06:26:13.223Z,12.12
2022-12-26T06:28:41.932Z,12.09
2022-12-26T06:31:15.946Z,12.06
2022-12-26T06:33:43.598Z,11.94
2022-12-26T06:36:13.718Z,11.95
2022-12-26T06:38:41.321Z,12.02
2022-12-26T06:41:10.720Z,12.03
2022-12-26T06:43:39.011Z,11.97
2022-12-26T06:46:08.055Z,11.86
2022-12-26T06:48:39.811Z,11.90
2022-12-26T06:51:15.813Z,11.93
2022-12-26T06:53:44.494Z,12.05
2022-12-26T06:56:17.110Z,12.03
2022-12-26T06:58:44.943Z,12.09
2022-12-26T07:01:17.740Z,12.03
2022-12-26T07:03:51.165Z,11.95
2022-12-26T07:06:21.365Z,12.00
2022-12-26T07:08:49.350Z,12.08
2022-12-26T07:11:18.430Z,12.21
2022-12-26T07:13:46.006Z,12.11
2022-12-26T07:16:14.110Z,12.16
2022-12-26T07:18:41.657Z,12.04
2022-12-26T07:21:11.296Z,12.05
2022-12-26T07:23:38.604Z,12.01
2022-12-26T07:26:06.252Z,11.97
2022-12-26T07:28:33.817Z,11.89
2022-12-26T07:31:01.265Z,11.77
2022-12-26T07:33:29.510Z,11.71
2022-12-26T07:36:01.291Z,11.53
2022-12-26T07:38:28.650Z,11.44
2022-12-26T07:40:56.796Z,11.38
2022-12-26T07:43:24.741Z,11.19
2022-12-26T07:45:52.382Z,11.21
2022-12-26T07:48:19.697Z,11.21
2022-12-26T07:50:49.247Z,11.12
2022-12-26T07:53:16.624Z,11.20
2022-12-26T07:55:43.997Z,11.13
2022-12-26T07:58:11.384Z,11.13
2022-12-26T08:00:38.703Z,11.01
2022-12-26T08:03:08.107Z,11.09
2022-12-26T08:05:35.999Z,11.08
2022-12-26T08:08:03.469Z,11.02
2022-12-26T08:10:30.814Z,10.99
2022-12-26T08:12:58.162Z,11.11
2022-12-26T08:15:25.615Z,11.12
2022-12-26T08:17:52.955Z,11.07
2022-12-26T08:20:20.286Z,11.16
2022-12-26T08:22:47.596Z,11.23
2022-12-26T08:25:18.306Z,11.20
2022-12-26T08:27:49.071Z,11.30
2022-12-26T08:30:16.682Z,11.36
2022-12-26T08:32:46.356Z,11.33
2022-12-26T08:35:14.024Z,11.19
2022-12-26T08:37:41.519Z,11.17
2022-12-26T08:40:09.304Z,11.14
2022-12-26T08:42:44.705Z,11.09
2022-12-26T08:45:17.879Z,10.97
2022-12-26T08:47:45.311Z,10.87
2022-12-26T08:50:13.781Z,10.85
2022-12-26T08:52:41.162Z,10.85
2022-12-26T08:55:09.417Z,10.85
2022-12-26T08:57:37.066Z,10.86
2022-12-26T09:00:06.070Z,10.87
2022-12-26T09:02:33.672Z,10.87
2022-12-26T09:05:01.191Z,10.92
2022-12-26T09:07:28.604Z,10.92
2022-12-26T09:09:55.970Z,10.78
2022-12-26T09:12:23.294Z,10.67
2022-12-26T09:14:50.662Z,10.49
2022-12-26T09:17:18.140Z,10.17
2022-12-26T09:19:45.717Z,10.00
2022-12-26T09:22:35.143Z,9.92
2022-12-26T09:25:02.775Z,9.89
2022-12-26T09:27:30.173Z,9.78
2022-12-26T09:29:57.527Z,9.82
2022-12-26T09:32:24.882Z,9.74
2022-12-26T09:34:52.251Z,9.75
2022-12-26T09:37:19.713Z,9.67
2022-12-26T09:39:47.006Z,9.57
2022-12-26T09:42:49.566Z,9.54
2022-12-26T09:45:18.922Z,9.39
2022-12-26T09:48:20.431Z,9.29
2022-12-26T09:50:50.710Z,9.29
2022-12-26T09:53:35.143Z,9.30
2022-12-26T09:56:04.261Z,9.32
2022-12-26T09:58:35.798Z,9.19
2022-12-26T10:01:20.734Z,9.18
2022-12-26T10:03:54.160Z,9.24
2022-12-26T10:06:27.003Z,9.24
2022-12-26T10:09:38.952Z,9.12
2022-12-26T10:12:09.007Z,9.14
2022-12-26T10:14:56.105Z,9.16
2022-12-26T10:18:15.781Z,9.10
2022-12-26T10:21:28.103Z,9.16
2022-12-26T10:24:08.488Z,9.13
2022-12-26T10:26:42.340Z,9.13
2022-12-26T10:29:09.617Z,9.01
2022-12-26T10:31:57.459Z,9.06
2022-12-26T10:34:31.202Z,9.02
2022-12-26T10:37:27.771Z,8.94
2022-12-26T10:40:19.944Z,9.04
2022-12-26T10:42:55.074Z,9.06
2022-12-26T10:45:36.752Z,9.14
2022-12-26T10:48:04.400Z,9.20
2022-12-26T10:50:34.910Z,9.30
2022-12-26T10:53:05.396Z,9.36
2022-12-26T10:55:35.201Z,9.32
2022-12-26T10:58:25.014Z,9.35
2022-12-26T11:00:52.426Z,9.32
2022-12-26T11:03:23.242Z,9.30
2022-12-26T11:06:07.589Z,9.33
2022-12-26T11:08:43.387Z,9.35
2022-12-26T11:11:21.425Z,9.38
2022-12-26T11:14:03.421Z,9.37
2022-12-26T11:16:39.166Z,9.27
2022-12-26T11:19:06.808Z,9.16
2022-12-26T11:21:34.534Z,9.08
2022-12-26T11:24:07.973Z,9.04
2022-12-26T11:26:35.353Z,8.99
2022-12-26T11:29:17.148Z,9.00
2022-12-26T11:31:56.423Z,9.02
2022-12-26T11:34:34.604Z,9.00
2022-12-26T11:37:02.153Z,9.01
2022-12-26T11:39:35.339Z,9.03
2022-12-26T11:42:15.897Z,9.04
2022-12-26T11:44:45.577Z,9.06
2022-12-26T11:47:16.018Z,9.07
2022-12-26T11:49:46.276Z,9.08
2022-12-26T11:52:39.158Z,9.09
2022-12-26T11:55:38.166Z,9.05
2022-12-26T11:58:22.926Z,9.07
2022-12-26T12:00:50.219Z,9.12
2022-12-26T12:03:18.767Z,9.18
2022-12-26T12:06:02.172Z,9.23
2022-12-26T12:08:42.439Z,9.25
2022-12-26T12:11:32.593Z,9.34
2022-12-26T12:14:31.913Z,9.37
2022-12-26T12:17:12.089Z,9.41
2022-12-26T12:19:44.882Z,9.42
2022-12-26T12:22:33.730Z,9.54
2022-12-26T12:25:22.927Z,9.56
2022-12-26T12:28:07.057Z,9.58
2022-12-26T12:30:59.510Z,9.64
2022-12-26T12:33:32.950Z,9.71
2022-12-26T12:36:35.162Z,9.77
2022-12-26T12:39:13.027Z,9.76
2022-12-26T12:42:05.154Z,9.68
2022-12-26T12:44:57.391Z,9.67
2022-12-26T12:47:46.773Z,9.64
2022-12-26T12:50:37.921Z,9.65
2022-12-26T12:53:36.851Z,9.70
2022-12-26T12:56:42.118Z,9.71
2022-12-26T12:59:21.769Z,9.64
2022-12-26T13:01:52.465Z,9.65
2022-12-26T13:04:34.909Z,9.70
2022-12-26T13:07:27.231Z,9.63
2022-12-26T13:10:03.634Z,9.78
2022-12-26T13:12:40.835Z,9.73
2022-12-26T13:15:29.974Z,9.65
2022-12-26T13:18:18.979Z,9.74
2022-12-26T13:20:56.251Z,9.72
2022-12-26T13:23:52.196Z,9.72
2022-12-26T13:26:39.309Z,9.90
2022-12-26T13:29:18.276Z,9.84
2022-12-26T13:31:46.278Z,9.84
2022-12-26T13:34:18.966Z,9.97
2022-12-26T13:36:47.398Z,9.94
2022-12-26T13:39:23.843Z,9.89
2022-12-26T13:42:27.945Z,9.82
2022-12-26T13:44:55.669Z,9.89
2022-12-26T13:47:39.442Z,9.88
2022-12-26T13:50:51.588Z,9.90
2022-12-26T13:53:25.384Z,9.88
2022-12-26T13:55:52.911Z,9.94
2022-12-26T13:58:22.957Z,9.90
2022-12-26T14:00:50.823Z,9.94
2022-12-26T14:03:31.017Z,9.95
2022-12-26T14:06:20.178Z,9.94
2022-12-26T14:09:02.462Z,9.93
2022-12-26T14:11:36.037Z,9.95
2022-12-26T14:14:06.421Z,9.97
2022-12-26T14:17:18.520Z,9.97
2022-12-26T14:19:53.313Z,9.94
2022-12-26T14:22:36.915Z,9.94
2022-12-26T14:25:27.009Z,9.95
2022-12-26T14:28:18.630Z,9.91
2022-12-26T14:31:22.007Z,9.95
2022-12-26T14:34:31.330Z,9.86
2022-12-26T14:37:22.698Z,9.97
2022-12-26T14:40:20.976Z,9.96
2022-12-26T14:43:22.111Z,9.91
2022-12-26T14:45:53.599Z,9.94
2022-12-26T14:48:23.959Z,9.92
2022-12-26T14:51:04.281Z,9.93
2022-12-26T14:53:36.263Z,9.93
2022-12-26T14:56:10.539Z,9.92
2022-12-26T14:59:32.142Z,9.84
2022-12-26T15:02:02.567Z,9.84
2022-12-26T15:05:08.893Z,9.85
2022-12-26T15:08:03.720Z,9.87
2022-12-26T15:10:39.978Z,9.95
2022-12-26T15:13:10.334Z,9.91
2022-12-26T15:16:06.827Z,9.90
2022-12-26T15:19:00.505Z,9.90
2022-12-26T15:22:06.065Z,9.89
2022-12-26T15:25:18.167Z,9.90
2022-12-26T15:28:02.931Z,9.93
2022-12-26T15:31:17.082Z,9.88
2022-12-26T15:33:59.268Z,9.82
2022-12-26T15:36:48.182Z,9.85
2022-12-26T15:39:27.117Z,9.80
2022-12-26T15:42:09.825Z,9.86
2022-12-26T15:45:08.878Z,9.78
2022-12-26T15:47:52.368Z,9.79
2022-12-26T15:50:22.438Z,9.77
2022-12-26T15:52:59.277Z,9.83
2022-12-26T15:55:45.485Z,9.79
2022-12-26T15:58:31.143Z,9.77
2022-12-26T16:00:58.759Z,9.76
2022-12-26T16:03:46.322Z,9.77
2022-12-26T16:06:29.314Z,9.81
2022-12-26T16:09:02.516Z,9.87
2022-12-26T16:11:57.149Z,9.91
2022-12-26T16:14:26.123Z,9.88
2022-12-26T16:16:53.734Z,9.84
2022-12-26T16:19:23.720Z,9.81
2022-12-26T16:22:17.267Z,9.82
2022-12-26T16:24:45.121Z,9.72
2022-12-26T16:27:18.671Z,9.70
2022-12-26T16:30:11.999Z,9.80
2022-12-26T16:32:41.737Z,9.90
2022-12-26T16:35:37.357Z,9.84
2022-12-26T16:38:06.788Z,9.88
2022-12-26T16:40:41.826Z,9.90
2022-12-26T16:43:18.318Z,9.96
2022-12-26T16:45:51.460Z,9.95
2022-12-26T16:48:26.122Z,9.90
2022-12-26T16:50:59.797Z,9.89
2022-12-26T16:53:36.274Z,9.94
2022-12-26T16:56:26.788Z,9.85
2022-12-26T16:59:15.354Z,9.75
2022-12-26T17:01:50.606Z,9.69
2022-12-26T17:04:26.395Z,9.70
2022-12-26T17:06:57.931Z,9.66
2022-12-26T17:09:27.798Z,9.62
2022-12-26T17:12:03.700Z,9.53
2022-12-26T17:14:40.074Z,9.39
2022-12-26T17:17:29.410Z,9.26
2022-12-26T17:19:59.064Z,9.15
2022-12-26T17:22:31.534Z,9.11
2022-12-26T17:25:17.186Z,9.19
2022-12-26T17:27:45.566Z,9.19
2022-12-26T17:30:31.063Z,9.11
2022-12-26T17:33:25.597Z,9.09
2022-12-26T17:37:19.236Z,9.05
2022-12-26T17:38:54.543Z,9.02
2022-12-26T17:41:21.649Z,9.03
2022-12-26T17:43:49.216Z,9.00
2022-12-26T17:46:17.909Z,8.98
2022-12-26T17:48:45.819Z,9.06
2022-12-26T17:51:16.522Z,9.00
2022-12-26T17:53:49.334Z,8.93
2022-12-26T17:56:22.636Z,8.89
2022-12-26T17:58:50.478Z,8.80
2022-12-26T18:01:21.284Z,8.83
2022-12-26T18:03:49.465Z,8.70
2022-12-26T18:06:17.404Z,8.69
2022-12-26T18:08:45.310Z,8.71
2022-12-26T18:11:14.304Z,8.66
2022-12-26T18:13:42.985Z,8.66
2022-12-26T18:16:17.251Z,8.72
2022-12-26T18:18:46.348Z,8.70
2022-12-26T18:21:15.689Z,8.66
2022-12-26T18:23:43.240Z,8.61
2022-12-26T18:26:24.355Z,8.60
2022-12-26T18:28:52.239Z,8.61
2022-12-26T18:31:19.811Z,8.62
2022-12-26T18:33:46.771Z,8.57
2022-12-26T18:36:15.411Z,8.55
2022-12-26T18:38:43.114Z,8.59
2022-12-26T18:41:20.643Z,8.62
2022-12-26T18:43:48.483Z,8.65
2022-12-26T18:46:21.910Z,8.66
2022-12-26T18:48:50.918Z,8.66
2022-12-26T18:51:19.426Z,8.61
2022-12-26T18:53:47.140Z,8.59
2022-12-26T18:56:18.481Z,8.54
2022-12-26T18:58:57.100Z,8.45
2022-12-26T19:01:25.461Z,8.28
2022-12-26T19:03:53.959Z,8.13
2022-12-26T19:06:26.609Z,8.07
2022-12-26T19:08:54.177Z,7.96
2022-12-26T19:11:21.922Z,7.94
2022-12-26T19:13:49.301Z,7.96
2022-12-26T19:16:17.002Z,8.02
2022-12-26T19:18:44.500Z,7.97
2022-12-26T19:21:13.556Z,8.03
2022-12-26T19:23:41.724Z,8.04
2022-12-26T19:26:14.879Z,8.06
2022-12-26T19:28:42.414Z,8.04
2022-12-26T19:31:12.144Z,8.02
2022-12-26T19:33:39.703Z,7.99
2022-12-26T19:36:08.264Z,7.94
2022-12-26T19:38:35.789Z,7.91
2022-12-26T19:41:08.058Z,7.81
2022-12-26T19:43:35.874Z,7.82
2022-12-26T19:46:05.581Z,7.72
2022-12-26T19:48:34.336Z,7.70
2022-12-26T19:51:09.815Z,7.62
2022-12-26T19:53:38.047Z,7.61
2022-12-26T19:56:10.032Z,7.59
2022-12-26T19:58:38.173Z,7.56
2022-12-26T20:01:27.017Z,7.49
2022-12-26T20:03:59.274Z,7.45
2022-12-26T20:06:27.963Z,7.44
2022-12-26T20:08:57.873Z,7.39
2022-12-26T20:11:29.997Z,7.36
2022-12-26T20:13:57.709Z,7.40
2022-12-26T20:19:13.760Z,7.32
2022-12-26T20:21:41.141Z,7.29
2022-12-26T20:24:10.428Z,7.27
2022-12-26T20:26:38.076Z,7.28
2022-12-26T20:29:05.651Z,7.24
2022-12-26T20:31:33.848Z,7.21
2022-12-26T20:34:01.692Z,7.20
2022-12-26T20:36:34.086Z,7.22
2022-12-26T20:39:04.495Z,7.22
2022-12-26T20:41:31.937Z,7.20
2022-12-26T20:43:59.501Z,7.19
2022-12-26T20:46:32.602Z,7.21
2022-12-26T20:49:02.570Z,7.17
2022-12-26T20:51:36.817Z,7.17
2022-12-26T20:54:06.612Z,7.14
2022-12-26T20:56:34.686Z,7.14
2022-12-26T20:59:02.076Z,7.11
2022-12-26T21:01:29.716Z,7.10
2022-12-26T21:03:57.591Z,7.14
2022-12-26T21:06:26.382Z,7.06
2022-12-26T21:08:54.160Z,7.06
2022-12-26T21:11:27.226Z,7.04
2022-12-26T21:13:57.627Z,7.13
2022-12-26T21:16:49.109Z,7.05
2022-12-26T21:19:17.183Z,7.06
2022-12-26T21:21:46.984Z,7.10
2022-12-26T21:24:19.038Z,7.05
2022-12-26T21:26:47.269Z,7.05
2022-12-26T21:29:17.139Z,7.10
2022-12-26T21:31:45.064Z,7.11
2022-12-26T21:34:14.670Z,7.10
2022-12-26T21:37:02.705Z,7.06
2022-12-26T21:39:31.023Z,7.04
2022-12-26T21:41:58.572Z,7.01
2022-12-26T21:44:26.001Z,7.07
2022-12-26T21:46:53.481Z,7.04
2022-12-26T21:49:20.911Z,7.03
2022-12-26T21:51:48.292Z,6.97
2022-12-26T21:54:34.162Z,6.93
2022-12-26T21:57:01.519Z,6.90
2022-12-26T21:59:47.333Z,6.83
2022-12-26T22:02:34.223Z,6.78
2022-12-26T22:05:02.025Z,6.67
2022-12-26T22:07:29.659Z,6.65
2022-12-26T22:09:57.019Z,6.59
2022-12-26T22:12:43.042Z,6.48
2022-12-26T22:15:31.003Z,6.40
2022-12-26T22:17:58.524Z,6.24
2022-12-26T22:20:25.823Z,6.18
2022-12-26T22:22:53.325Z,6.14
2022-12-26T22:25:20.827Z,6.03
2022-12-26T22:27:48.235Z,5.94
2022-12-26T22:30:15.595Z,5.92
2022-12-26T22:32:42.866Z,5.87
2022-12-26T22:35:16.522Z,5.82
2022-12-26T22:37:45.814Z,5.82
2022-12-26T22:40:13.372Z,5.90
2022-12-26T22:42:40.738Z,5.96
2022-12-26T22:45:08.634Z,6.00
2022-12-26T22:47:35.952Z,6.02
2022-12-26T22:50:03.363Z,6.12
2022-12-26T22:52:30.676Z,6.13
2022-12-26T22:54:57.998Z,6.07
2022-12-26T22:57:25.324Z,6.02
2022-12-26T23:00:09.572Z,6.06
2022-12-26T23:02:38.114Z,6.06
2022-12-26T23:05:06.373Z,6.04
2022-12-26T23:07:33.949Z,6.04
2022-12-26T23:10:01.447Z,6.08
2022-12-26T23:12:44.207Z,6.05
2022-12-26T23:15:14.488Z,6.02
2022-12-26T23:18:05.377Z,5.97
2022-12-26T23:20:53.738Z,5.99
2022-12-26T23:23:21.939Z,5.97
2022-12-26T23:25:49.596Z,6.09
2022-12-26T23:28:35.662Z,6.06
2022-12-26T23:31:05.792Z,6.04
2022-12-26T23:33:33.505Z,6.14
2022-12-26T23:36:00.888Z,6.04
2022-12-26T23:38:28.282Z,5.94
2022-12-26T23:40:55.665Z,5.89
2022-12-26T23:43:23.137Z,5.83
2022-12-26T23:45:50.489Z,5.81
2022-12-26T23:48:17.883Z,5.84
2022-12-26T23:50:45.419Z,5.78
2022-12-26T23:53:12.710Z,5.85
2022-12-26T23:55:42.841Z,5.85
2022-12-26T23:58:10.305Z,5.84
